Terminal Aerodrome Forecast
Issued by NWS

Home | Current Version | Previous Version | Text Only | Print | Product List | Glossary On
Versions: 1 2 3 4 5 6 7 8 9 10 11 12 13 14 15
000
FTUS43 KMQT 221100
TAFIWD
TAF
KIWD 221126Z 2212/2312 16006KT P6SM SKC
     FM221700 17010G17KT P6SM FEW250
     FM230200 17011KT P6SM VCSH BKN060 WS020/21040KT
     FM231100 18010KT P6SM -SHRA OVC070 WS020/21040KT
      AMD LTD TO CLD VIS AND WIND=

USA.gov is the U.S. government's official web portal to all federal, state and local government web resources and services.